createdAt,value
2022-07-31T00:00:40.579Z,1.40
2022-07-31T00:03:09.276Z,1.50
2022-07-31T00:05:42.521Z,1.40
2022-07-31T00:08:13.206Z,1.63
2022-07-31T00:10:42.803Z,1.57
2022-07-31T00:13:15.011Z,1.80
2022-07-31T00:15:44.875Z,1.50
2022-07-31T00:18:17.414Z,1.60
2022-07-31T00:20:49.083Z,1.50
2022-07-31T00:23:19.127Z,1.70
2022-07-31T00:25:48.225Z,1.60
2022-07-31T00:28:16.090Z,1.90
2022-07-31T00:30:45.633Z,1.50
2022-07-31T00:33:15.767Z,1.80
2022-07-31T00:35:45.551Z,1.47
2022-07-31T00:38:32.160Z,1.40
2022-07-31T00:41:04.937Z,1.50
2022-07-31T00:43:37.206Z,1.50
2022-07-31T00:46:10.388Z,1.50
2022-07-31T00:48:47.273Z,1.63
2022-07-31T00:51:19.324Z,1.23
2022-07-31T00:53:48.728Z,1.57
2022-07-31T00:56:17.923Z,1.30
2022-07-31T00:58:46.713Z,1.30
2022-07-31T01:01:17.367Z,1.50
2022-07-31T01:03:45.618Z,1.30
2022-07-31T01:06:15.956Z,1.17
2022-07-31T01:08:45.894Z,1.20
2022-07-31T01:11:19.528Z,1.40
2022-07-31T01:14:12.023Z,1.10
2022-07-31T01:16:54.718Z,1.20
2022-07-31T01:19:43.747Z,1.40
2022-07-31T01:22:34.141Z,1.30
2022-07-31T01:25:24.905Z,1.40
2022-07-31T01:27:57.419Z,1.40
2022-07-31T01:30:31.670Z,1.43
2022-07-31T01:36:21.799Z,1.40
2022-07-31T01:38:56.354Z,1.40
2022-07-31T01:41:28.070Z,1.13
2022-07-31T01:43:58.772Z,1.50
2022-07-31T01:46:29.745Z,1.40
2022-07-31T01:49:02.123Z,1.30
2022-07-31T01:51:33.961Z,1.30
2022-07-31T01:54:04.593Z,1.50
2022-07-31T01:56:41.136Z,1.47
2022-07-31T01:59:22.662Z,1.40
2022-07-31T02:02:03.843Z,1.33
2022-07-31T02:04:36.866Z,1.50
2022-07-31T02:07:08.423Z,1.40
2022-07-31T02:12:33.491Z,1.30
2022-07-31T02:15:08.291Z,1.37
2022-07-31T02:17:48.761Z,1.60
2022-07-31T02:20:19.033Z,1.27
2022-07-31T02:22:52.520Z,1.40
2022-07-31T02:25:22.527Z,1.60
2022-07-31T02:27:58.355Z,1.37
2022-07-31T02:30:39.703Z,1.17
2022-07-31T02:33:13.576Z,1.20
2022-07-31T02:35:55.154Z,1.40
2022-07-31T02:38:31.599Z,1.37
2022-07-31T02:41:15.912Z,1.40
2022-07-31T02:43:50.416Z,1.50
2022-07-31T02:46:23.039Z,1.50
2022-07-31T02:48:54.787Z,1.40
2022-07-31T02:51:24.310Z,1.43
2022-07-31T02:53:54.454Z,1.40
2022-07-31T02:56:23.453Z,1.40
2022-07-31T03:01:41.836Z,1.30
2022-07-31T03:04:12.369Z,1.40
2022-07-31T03:06:42.191Z,1.30
2022-07-31T03:09:12.735Z,1.40
2022-07-31T03:11:44.823Z,1.50
2022-07-31T03:14:16.554Z,1.50
2022-07-31T03:16:45.147Z,1.33
2022-07-31T03:19:20.194Z,1.70
2022-07-31T03:21:53.479Z,1.43
2022-07-31T03:24:31.678Z,1.40
2022-07-31T03:27:05.359Z,1.40
2022-07-31T03:29:43.074Z,1.20
2022-07-31T03:32:17.996Z,1.40
2022-07-31T03:34:46.195Z,1.40
2022-07-31T03:37:17.924Z,1.30
2022-07-31T03:39:48.360Z,1.57
2022-07-31T03:42:20.376Z,1.47
2022-07-31T03:44:53.995Z,1.27
2022-07-31T03:47:24.195Z,1.40
2022-07-31T03:49:59.155Z,1.30
2022-07-31T03:52:28.328Z,1.57
2022-07-31T03:54:57.275Z,1.53
2022-07-31T03:57:31.386Z,1.70
2022-07-31T04:00:16.698Z,1.47
2022-07-31T04:02:51.077Z,1.43
2022-07-31T04:05:26.352Z,1.57
2022-07-31T04:07:58.682Z,1.50
2022-07-31T04:13:12.984Z,1.23
2022-07-31T04:18:25.758Z,1.53
2022-07-31T04:20:56.987Z,1.37
2022-07-31T04:23:32.344Z,1.40
2022-07-31T04:26:04.990Z,1.30
2022-07-31T04:28:39.761Z,1.40
2022-07-31T04:31:09.433Z,1.50
2022-07-31T04:33:48.881Z,1.40
2022-07-31T04:36:30.389Z,1.33
2022-07-31T04:39:04.535Z,1.23
2022-07-31T04:41:34.884Z,1.40
2022-07-31T04:44:06.803Z,1.30
2022-07-31T04:46:39.465Z,1.40
2022-07-31T04:49:10.226Z,1.70
2022-07-31T04:51:37.660Z,1.60
2022-07-31T04:54:07.530Z,1.40
2022-07-31T04:56:42.419Z,1.50
2022-07-31T04:59:57.980Z,1.57
2022-07-31T05:02:18.960Z,1.33
2022-07-31T05:04:47.629Z,1.50
2022-07-31T05:07:31.841Z,1.57
2022-07-31T05:10:04.681Z,1.70
2022-07-31T05:12:36.546Z,1.60
2022-07-31T05:15:08.670Z,1.60
2022-07-31T05:17:39.892Z,1.43
2022-07-31T05:20:13.693Z,1.60
2022-07-31T05:25:30.227Z,1.60
2022-07-31T05:27:57.785Z,1.30
2022-07-31T05:30:34.148Z,1.43
2022-07-31T05:33:07.869Z,1.30
2022-07-31T05:35:40.998Z,1.50
2022-07-31T05:38:12.090Z,1.60
2022-07-31T05:40:42.114Z,1.63
2022-07-31T05:43:14.246Z,1.50
2022-07-31T05:45:46.390Z,1.80
2022-07-31T05:48:18.799Z,1.40
2022-07-31T05:50:50.595Z,1.60
2022-07-31T05:53:25.092Z,1.60
2022-07-31T05:55:55.420Z,1.60
2022-07-31T05:58:24.243Z,1.40
2022-07-31T06:00:54.581Z,1.43
2022-07-31T06:03:28.997Z,1.47
2022-07-31T06:05:59.393Z,1.40
2022-07-31T06:08:34.723Z,1.50
2022-07-31T06:11:05.544Z,1.57
2022-07-31T06:13:37.691Z,1.50
2022-07-31T06:16:08.581Z,1.20
2022-07-31T06:18:49.408Z,1.60
2022-07-31T06:23:46.464Z,1.80
2022-07-31T06:26:18.471Z,1.37
2022-07-31T06:28:51.257Z,1.57
2022-07-31T06:31:26.003Z,1.50
2022-07-31T06:33:56.664Z,1.60
2022-07-31T06:36:27.379Z,1.40
2022-07-31T06:38:59.672Z,1.60
2022-07-31T06:41:50.753Z,1.40
2022-07-31T06:44:22.575Z,1.17
2022-07-31T06:47:03.571Z,1.50
2022-07-31T06:49:33.412Z,1.30
2022-07-31T06:52:05.776Z,1.33
2022-07-31T06:54:38.077Z,1.40
2022-07-31T06:57:09.647Z,1.43
2022-07-31T06:59:40.869Z,1.40
2022-07-31T07:02:11.412Z,1.23
2022-07-31T07:04:57.366Z,1.50
2022-07-31T07:07:39.860Z,1.40
2022-07-31T07:10:11.584Z,1.40
2022-07-31T07:12:46.543Z,1.37
2022-07-31T07:15:18.758Z,1.40
2022-07-31T07:17:50.673Z,1.53
2022-07-31T07:20:22.907Z,1.23
2022-07-31T07:22:52.778Z,1.23
2022-07-31T07:25:26.928Z,1.27
2022-07-31T07:27:59.528Z,1.17
2022-07-31T07:30:32.482Z,1.40
2022-07-31T07:33:05.893Z,1.20
2022-07-31T07:38:22.452Z,1.23
2022-07-31T07:40:55.127Z,1.40
2022-07-31T07:43:28.214Z,1.47
2022-07-31T07:45:57.972Z,1.07
2022-07-31T07:48:30.047Z,1.40
2022-07-31T07:53:57.199Z,1.40
2022-07-31T07:56:29.374Z,1.40
2022-07-31T07:59:01.024Z,1.40
2022-07-31T08:01:35.783Z,1.30
2022-07-31T08:04:06.995Z,1.40
2022-07-31T08:12:08.783Z,1.30
2022-07-31T08:14:41.070Z,1.40
2022-07-31T08:17:14.073Z,1.30
2022-07-31T08:19:49.471Z,1.33
2022-07-31T08:22:22.442Z,1.13
2022-07-31T08:24:59.357Z,1.20
2022-07-31T08:27:40.782Z,1.53
2022-07-31T08:30:13.264Z,1.37
2022-07-31T08:32:43.157Z,1.30
2022-07-31T08:35:17.235Z,1.40
2022-07-31T08:38:02.552Z,1.30
2022-07-31T08:40:43.241Z,1.30
2022-07-31T08:44:01.647Z,1.40
2022-07-31T08:46:12.282Z,1.33
2022-07-31T08:48:45.811Z,1.37
2022-07-31T08:51:21.466Z,1.43
2022-07-31T08:53:53.879Z,1.40
2022-07-31T08:56:28.394Z,1.30
2022-07-31T08:59:00.086Z,1.33
2022-07-31T09:01:33.699Z,1.43
2022-07-31T09:04:05.206Z,1.50
2022-07-31T09:06:36.342Z,1.33
2022-07-31T09:09:07.121Z,1.60
2022-07-31T09:11:47.878Z,1.30
2022-07-31T09:14:27.531Z,1.43
2022-07-31T09:17:03.363Z,1.73
2022-07-31T09:19:52.720Z,1.50
2022-07-31T09:22:29.390Z,1.40
2022-07-31T09:25:22.900Z,1.40
2022-07-31T09:27:55.945Z,1.57
2022-07-31T09:30:25.269Z,1.63
2022-07-31T09:32:57.330Z,1.47
2022-07-31T09:35:29.154Z,1.53
2022-07-31T09:38:00.111Z,1.40
2022-07-31T09:40:56.966Z,1.40
2022-07-31T09:43:31.912Z,1.37
2022-07-31T09:46:21.332Z,1.57
2022-07-31T09:48:56.657Z,1.40
2022-07-31T09:51:46.979Z,1.37
2022-07-31T09:54:27.352Z,1.50
2022-07-31T09:56:59.566Z,1.63
2022-07-31T09:59:34.449Z,1.43
2022-07-31T10:02:06.663Z,1.40
2022-07-31T10:04:42.127Z,1.37
2022-07-31T10:07:32.066Z,1.47
2022-07-31T10:10:11.754Z,1.37
2022-07-31T10:12:47.350Z,1.40
2022-07-31T10:15:31.251Z,1.33
2022-07-31T10:20:55.036Z,1.30
2022-07-31T10:23:28.038Z,1.53
2022-07-31T10:26:01.629Z,1.40
2022-07-31T10:28:36.970Z,1.60
2022-07-31T10:31:09.123Z,1.17
2022-07-31T10:33:44.116Z,1.60
2022-07-31T10:36:40.445Z,1.70
2022-07-31T10:39:42.400Z,1.50
2022-07-31T10:42:20.188Z,1.60
2022-07-31T10:44:59.156Z,1.53
2022-07-31T10:47:34.356Z,1.30
2022-07-31T10:50:05.298Z,1.60
2022-07-31T10:52:41.620Z,1.60
2022-07-31T10:55:22.656Z,1.60
2022-07-31T10:57:57.150Z,1.60
2022-07-31T11:00:37.365Z,1.50
2022-07-31T11:03:21.379Z,1.80
2022-07-31T11:06:14.968Z,1.60
2022-07-31T11:08:48.552Z,1.60
2022-07-31T11:11:18.369Z,1.70
2022-07-31T11:14:02.740Z,1.47
2022-07-31T11:16:37.651Z,1.60
2022-07-31T11:19:14.244Z,1.53
2022-07-31T11:21:45.660Z,1.70
2022-07-31T11:24:18.219Z,1.60
2022-07-31T11:26:55.573Z,1.70
2022-07-31T11:29:59.208Z,1.80
2022-07-31T11:32:34.100Z,1.47
2022-07-31T11:35:05.940Z,1.80
2022-07-31T11:37:57.132Z,1.77
2022-07-31T11:40:37.814Z,1.50
2022-07-31T11:43:25.642Z,1.73
2022-07-31T11:45:57.126Z,1.87
2022-07-31T11:48:32.807Z,1.50
2022-07-31T11:51:08.221Z,1.63
2022-07-31T11:53:44.919Z,1.63
2022-07-31T11:56:20.109Z,1.70
2022-07-31T11:58:53.794Z,1.80
2022-07-31T12:01:33.092Z,1.80
2022-07-31T12:04:09.055Z,1.90
2022-07-31T12:06:38.804Z,1.70
2022-07-31T12:10:01.930Z,1.60
2022-07-31T12:12:10.724Z,1.70
2022-07-31T12:14:43.460Z,1.80
2022-07-31T12:17:21.735Z,1.87
2022-07-31T12:19:57.852Z,1.70
2022-07-31T12:22:30.020Z,1.70
2022-07-31T12:25:08.586Z,2.13
2022-07-31T12:27:40.442Z,1.70
2022-07-31T12:30:18.354Z,1.90
2022-07-31T12:32:49.326Z,1.80
2022-07-31T12:35:19.887Z,1.80
2022-07-31T12:37:55.103Z,2.10
2022-07-31T12:40:31.100Z,1.70
2022-07-31T12:43:05.250Z,1.90
2022-07-31T12:45:42.260Z,1.70
2022-07-31T12:48:14.087Z,2.07
2022-07-31T12:50:42.448Z,1.63
2022-07-31T12:53:12.123Z,1.80
2022-07-31T12:55:41.715Z,1.90
2022-07-31T12:58:11.137Z,1.70
2022-07-31T13:00:44.126Z,2.00
2022-07-31T13:03:13.258Z,1.87
2022-07-31T13:05:48.108Z,1.93
2022-07-31T13:08:24.160Z,2.10
2022-07-31T13:10:54.919Z,1.80
2022-07-31T13:13:27.168Z,1.80
2022-07-31T13:15:56.025Z,1.70
2022-07-31T13:18:25.738Z,2.20
2022-07-31T13:20:57.235Z,2.40
2022-07-31T13:23:29.160Z,1.80
2022-07-31T13:26:01.907Z,2.27
2022-07-31T13:28:29.439Z,2.07
2022-07-31T13:30:58.459Z,2.00
2022-07-31T13:33:31.199Z,1.80
2022-07-31T13:36:04.285Z,2.13
2022-07-31T13:38:36.375Z,2.20
2022-07-31T13:41:24.160Z,1.93
2022-07-31T13:44:00.194Z,2.13
2022-07-31T13:46:32.406Z,2.30
2022-07-31T13:49:04.268Z,2.10
2022-07-31T13:51:36.162Z,2.10
2022-07-31T13:56:59.976Z,2.40
2022-07-31T13:59:35.252Z,2.07
2022-07-31T14:02:08.200Z,2.23
2022-07-31T14:04:40.616Z,2.00
2022-07-31T14:07:12.839Z,2.40
2022-07-31T14:09:51.381Z,2.13
2022-07-31T14:12:30.014Z,2.50
2022-07-31T14:15:04.003Z,2.30
2022-07-31T14:17:34.633Z,2.20
2022-07-31T14:20:06.174Z,2.17
2022-07-31T14:22:37.466Z,2.07
2022-07-31T14:25:06.863Z,1.87
2022-07-31T14:27:38.147Z,2.10
2022-07-31T14:30:10.776Z,2.20
2022-07-31T14:32:43.168Z,2.13
2022-07-31T14:35:16.531Z,2.10
2022-07-31T14:37:50.409Z,2.27
2022-07-31T14:40:21.781Z,2.10
2022-07-31T14:42:55.251Z,2.20
2022-07-31T14:45:28.159Z,2.10
2022-07-31T14:48:00.156Z,1.90
2022-07-31T14:50:32.586Z,2.10
2022-07-31T14:53:02.271Z,1.97
2022-07-31T14:55:34.772Z,2.13
2022-07-31T14:58:13.684Z,1.90
2022-07-31T15:00:45.360Z,1.87
2022-07-31T15:03:16.380Z,1.80
2022-07-31T15:06:39.983Z,1.80
2022-07-31T15:08:54.128Z,1.60
2022-07-31T15:11:59.628Z,1.80
2022-07-31T15:14:17.641Z,1.70
2022-07-31T15:16:52.961Z,1.90
2022-07-31T15:19:25.118Z,1.67
2022-07-31T15:22:15.772Z,1.77
2022-07-31T15:24:50.440Z,1.77
2022-07-31T15:27:28.011Z,1.70
2022-07-31T15:30:03.655Z,1.80
2022-07-31T15:32:46.455Z,2.00
2022-07-31T15:35:21.629Z,1.80
2022-07-31T15:37:52.582Z,1.73
2022-07-31T15:40:21.249Z,1.40
2022-07-31T15:42:50.161Z,1.70
2022-07-31T15:45:34.033Z,2.20
2022-07-31T15:48:09.851Z,1.53
2022-07-31T15:50:44.424Z,1.80
2022-07-31T15:53:14.165Z,1.57
2022-07-31T15:55:42.920Z,1.80
2022-07-31T15:58:13.471Z,1.80
2022-07-31T16:00:45.622Z,1.83
2022-07-31T16:03:18.191Z,1.67
2022-07-31T16:05:55.941Z,1.60
2022-07-31T16:08:35.268Z,1.63
2022-07-31T16:11:07.199Z,1.63
2022-07-31T16:13:38.648Z,1.67
2022-07-31T16:16:11.137Z,1.50
2022-07-31T16:18:42.674Z,1.50
2022-07-31T16:21:16.102Z,1.40
2022-07-31T16:23:46.150Z,1.40
2022-07-31T16:26:18.801Z,1.57
2022-07-31T16:28:53.690Z,1.60
2022-07-31T16:31:29.826Z,1.60
2022-07-31T16:34:04.994Z,1.63
2022-07-31T16:36:36.716Z,1.40
2022-07-31T16:39:19.839Z,1.57
2022-07-31T16:41:55.375Z,1.30
2022-07-31T16:47:16.790Z,1.57
2022-07-31T16:50:08.434Z,1.80
2022-07-31T16:52:45.349Z,1.50
2022-07-31T16:55:15.857Z,1.40
2022-07-31T16:57:44.659Z,1.60
2022-07-31T17:00:15.610Z,1.47
2022-07-31T17:02:48.029Z,1.53
2022-07-31T17:05:23.091Z,1.40
2022-07-31T17:13:25.288Z,1.77
2022-07-31T17:15:52.562Z,1.70
2022-07-31T17:18:27.448Z,1.43
2022-07-31T17:21:04.298Z,1.40
2022-07-31T17:23:43.897Z,1.30
2022-07-31T17:26:21.055Z,1.53
2022-07-31T17:28:53.643Z,1.50
2022-07-31T17:31:23.988Z,1.33
2022-07-31T17:34:00.715Z,1.40
2022-07-31T17:36:30.879Z,1.77
2022-07-31T17:39:01.402Z,1.20
2022-07-31T17:41:30.261Z,1.40
2022-07-31T17:44:02.593Z,1.30
2022-07-31T17:46:36.534Z,1.60
2022-07-31T17:49:20.744Z,1.20
2022-07-31T17:51:58.846Z,1.30
2022-07-31T17:54:31.821Z,1.40
2022-07-31T17:57:06.220Z,1.37
2022-07-31T17:59:36.863Z,1.53
2022-07-31T18:02:10.188Z,1.50
2022-07-31T18:04:41.275Z,1.30
2022-07-31T18:07:12.708Z,1.33
2022-07-31T18:09:44.819Z,1.30
2022-07-31T18:12:17.177Z,1.33
2022-07-31T18:14:52.232Z,1.17
2022-07-31T18:17:23.918Z,1.37
2022-07-31T18:19:55.663Z,1.20
2022-07-31T18:22:34.986Z,1.40
2022-07-31T18:28:04.849Z,1.27
2022-07-31T18:30:40.349Z,1.13
2022-07-31T18:33:12.820Z,1.23
2022-07-31T18:35:43.183Z,1.37
2022-07-31T18:38:16.444Z,1.10
2022-07-31T18:40:51.787Z,1.30
2022-07-31T18:43:22.913Z,1.30
2022-07-31T18:45:55.409Z,1.33
2022-07-31T18:48:24.149Z,1.40
2022-07-31T18:50:59.215Z,1.20
2022-07-31T18:53:35.184Z,1.10
2022-07-31T18:56:06.433Z,1.33
2022-07-31T18:58:35.994Z,1.50
2022-07-31T19:01:06.751Z,1.30
2022-07-31T19:03:36.409Z,1.40
2022-07-31T19:06:06.822Z,1.23
2022-07-31T19:08:37.000Z,1.40
2022-07-31T19:11:17.180Z,1.40
2022-07-31T19:13:47.869Z,1.20
2022-07-31T19:16:18.044Z,1.23
2022-07-31T19:18:51.250Z,1.40
2022-07-31T19:21:42.111Z,1.30
2022-07-31T19:24:20.223Z,1.33
2022-07-31T19:26:52.895Z,1.20
2022-07-31T19:29:26.330Z,1.30
2022-07-31T19:31:59.773Z,1.20
2022-07-31T19:34:27.231Z,1.30
2022-07-31T19:37:02.355Z,1.33
2022-07-31T19:39:34.967Z,1.37
2022-07-31T19:42:29.365Z,1.33
2022-07-31T19:44:59.969Z,1.30
2022-07-31T19:47:30.757Z,1.20
2022-07-31T19:50:02.587Z,1.20
2022-07-31T19:52:36.398Z,1.50
2022-07-31T19:55:10.504Z,1.07
2022-07-31T19:57:41.974Z,1.40
2022-07-31T20:00:13.095Z,1.27
2022-07-31T20:02:43.231Z,1.30
2022-07-31T20:05:17.589Z,1.30
2022-07-31T20:07:50.170Z,1.53
2022-07-31T20:10:18.183Z,1.20
2022-07-31T20:12:50.763Z,1.33
2022-07-31T20:15:22.624Z,1.40
2022-07-31T20:17:55.679Z,1.30
2022-07-31T20:20:26.762Z,1.40
2022-07-31T20:22:57.689Z,1.33
2022-07-31T20:25:28.026Z,1.20
2022-07-31T20:28:00.803Z,1.20
2022-07-31T20:30:49.741Z,1.50
2022-07-31T20:33:23.819Z,1.17
2022-07-31T20:35:56.334Z,1.40
2022-07-31T20:38:27.195Z,1.30
2022-07-31T20:40:59.528Z,1.17
2022-07-31T20:43:35.387Z,1.40
2022-07-31T20:46:04.437Z,1.40
2022-07-31T20:48:35.554Z,1.20
2022-07-31T20:51:07.866Z,1.37
2022-07-31T20:53:39.678Z,1.20
2022-07-31T20:56:11.677Z,1.23
2022-07-31T20:58:42.131Z,1.10
2022-07-31T21:01:14.042Z,1.30
2022-07-31T21:03:42.708Z,1.73
2022-07-31T21:06:20.145Z,1.20
2022-07-31T21:08:51.403Z,1.10
2022-07-31T21:11:31.751Z,1.00
2022-07-31T21:14:06.233Z,1.30
2022-07-31T21:16:35.014Z,1.50
2022-07-31T21:19:10.344Z,1.30
2022-07-31T21:21:43.191Z,1.10
2022-07-31T21:24:15.704Z,1.23
2022-07-31T21:26:45.824Z,1.10
2022-07-31T21:29:23.442Z,1.10
2022-07-31T21:31:58.751Z,1.17
2022-07-31T21:34:31.761Z,1.00
2022-07-31T21:37:04.873Z,1.27
2022-07-31T21:39:38.988Z,1.37
2022-07-31T21:42:08.745Z,1.00
2022-07-31T21:44:39.620Z,1.20
2022-07-31T21:47:14.906Z,1.37
2022-07-31T21:50:11.712Z,1.03
2022-07-31T21:52:44.238Z,1.20
2022-07-31T21:55:14.100Z,1.10
2022-07-31T21:57:59.112Z,1.10
2022-07-31T22:00:30.588Z,1.20
2022-07-31T22:03:05.137Z,1.30
2022-07-31T22:05:56.015Z,1.30
2022-07-31T22:11:09.537Z,0.90
2022-07-31T22:13:42.615Z,1.10
2022-07-31T22:16:11.520Z,1.00
2022-07-31T22:18:41.500Z,1.10
2022-07-31T22:21:10.952Z,1.30
2022-07-31T22:23:45.852Z,1.10
2022-07-31T22:29:12.876Z,1.10
2022-07-31T22:31:53.998Z,1.37
2022-07-31T22:34:37.406Z,1.17
2022-07-31T22:37:09.930Z,1.00
2022-07-31T22:39:44.084Z,1.40
2022-07-31T22:42:15.935Z,1.10
2022-07-31T22:44:46.841Z,1.10
2022-07-31T22:47:18.971Z,1.10
2022-07-31T22:49:49.371Z,1.20
2022-07-31T22:52:22.291Z,1.10
2022-07-31T22:55:02.854Z,1.10
2022-07-31T22:57:32.931Z,1.20
2022-07-31T23:00:05.617Z,1.13
2022-07-31T23:02:40.395Z,1.00
2022-07-31T23:05:13.923Z,1.03
2022-07-31T23:07:44.341Z,1.30
2022-07-31T23:10:16.331Z,1.07
2022-07-31T23:12:47.863Z,1.00
2022-07-31T23:15:16.515Z,1.10
2022-07-31T23:17:46.891Z,1.00
2022-07-31T23:20:18.036Z,1.33
2022-07-31T23:22:52.884Z,1.13
2022-07-31T23:25:22.521Z,1.20
2022-07-31T23:27:51.826Z,1.20
2022-07-31T23:30:25.353Z,1.10
2022-07-31T23:35:44.234Z,1.03
2022-07-31T23:38:16.241Z,1.10
2022-07-31T23:40:44.820Z,1.20
2022-07-31T23:43:20.577Z,1.03
2022-07-31T23:45:56.574Z,1.07
2022-07-31T23:48:29.909Z,1.20
2022-07-31T23:50:59.326Z,0.87
2022-07-31T23:53:31.717Z,1.10
2022-07-31T23:56:02.215Z,1.17
2022-07-31T23:58:29.462Z,0.90
